Capitol Logistics 401


KSEA
Seattle-Tacoma International Airport
Seattle, Washington, US
KMIA
Miami International Airport
Miami, Florida, US

Route Details

Aircraft Information
Primary: Boeing 757-200SF
Backup: Not Available
Route Data
Distance: 2411nm
Sched. Duration: 5h 40m
Avg. Duration: 5h 27m (-13m)
Times Flown: 7
Recm'd Route: SEA NORMY J90 MWH DLN DDY BFF SGF MEM MGM SZW PLYER JUULI SSCOT5
Planned Altitude: 35,000ft
Origin Wx: KSEA 240953Z 16006KT 3SM -RA BR BKN014 OVC020 03/02 A2993 RMK AO2 RAB48 SLP143 P0000 T00330017
Dest. Wx: KMIA 240953Z 00000KT 6SM BR FEW027 19/18 A3007 RMK AO2 SLP182 T01890178 $
Notes:

Financial History
Total Freight: 648,065lbs
Average Load: 92,581lbs/flt
Fuel Used: 409,279lbs
Avg. Fuel Used: 58,468lbs/flt
Fuel Expense: $458,393
Avg. Fuel Expense: $65,485
Avg. Fuel Cost: $1.12/lbs
Total Gross Income: $1,110,322
Pilot Pay: $1,443
Total Expenses: $120,279
Total Revenue: $522,098
Average Revenue: $158,617.39